Time;durP1;ratioP1;P1;durP2;ratioP2;P2;SDS_P1;SDS_P2;PMS_P1;PMS_P2;Temp;Humidity;BMP_temperature;BMP_pressure;BME280_temperature;BME280_humidity;BME280_pressure;Samples;Min_cycle;Max_cycle;Signal;HPM_P1;HPM_P2
2022/04/13 00:02:03;;;;;;;6.18;3.15;;;14.50;80.10;;;;;;5019111;28;20048;-70
2022/04/13 00:04:28;;;;;;;5.95;3.17;;;14.40;80.30;;;;;;5021104;28;20048;-69
2022/04/13 00:06:54;;;;;;;7.50;3.47;;;14.40;80.10;;;;;;5023325;28;20037;-69
2022/04/13 00:09:20;;;;;;;5.15;2.88;;;14.40;80.60;;;;;;5020380;28;20029;-69
2022/04/13 00:11:48;;;;;;;6.30;3.65;;;14.40;81.10;;;;;;5024132;28;20033;-70
2022/04/13 00:14:14;;;;;;;4.05;2.80;;;14.40;81.20;;;;;;5017026;28;20029;-70
2022/04/13 00:16:42;;;;;;;7.90;3.30;;;14.30;81.70;;;;;;5019211;28;20037;-68
2022/04/13 00:19:07;;;;;;;6.28;3.25;;;14.30;82.10;;;;;;5021879;28;20018;-69
2022/04/13 00:21:33;;;;;;;4.57;2.83;;;14.30;83.50;;;;;;5024878;28;20025;-71
2022/04/13 00:23:59;;;;;;;6.75;3.45;;;14.20;82.60;;;;;;5021330;28;20479;-69
2022/04/13 00:26:25;;;;;;;6.38;3.35;;;14.20;83.20;;;;;;5029766;28;20021;-69
2022/04/13 00:28:50;;;;;;;8.70;3.70;;;14.10;83.70;;;;;;5025122;28;20026;-69
2022/04/13 00:31:16;;;;;;;5.18;2.78;;;14.10;84.10;;;;;;5025566;28;20112;-70
2022/04/13 00:33:42;;;;;;;5.70;3.53;;;14.10;84.80;;;;;;5022295;28;20024;-69
2022/04/13 00:36:07;;;;;;;4.88;3.03;;;14.10;85.70;;;;;;5023289;28;20401;-70
2022/04/13 00:38:33;;;;;;;7.50;3.10;;;14.00;85.50;;;;;;5018909;28;20044;-69
2022/04/13 00:40:59;;;;;;;5.43;3.20;;;14.00;85.60;;;;;;5019577;28;20033;-70
2022/04/13 00:43:25;;;;;;;4.15;2.80;;;14.00;86.10;;;;;;5022111;28;20079;-70
2022/04/13 00:45:51;;;;;;;6.28;2.55;;;14.00;86.60;;;;;;5022009;28;20347;-69
2022/04/13 00:48:34;;;;;;;5.65;2.67;;;14.00;86.80;;;;;;5020509;28;20037;-70
2022/04/13 00:51:08;;;;;;;6.50;2.85;;;14.00;86.70;;;;;;5019946;28;20557;-68
2022/04/13 00:53:35;;;;;;;6.10;2.55;;;14.00;87.30;;;;;;5020568;28;20537;-70
2022/04/13 00:56:05;;;;;;;4.47;2.83;;;13.90;87.70;;;;;;5024327;28;20018;-69
2022/04/13 00:58:32;;;;;;;5.13;2.80;;;13.90;88.00;;;;;;5020602;28;20026;-69
2022/04/13 01:01:02;;;;;;;5.75;2.58;;;13.90;88.10;;;;;;5021327;28;20033;-69
2022/04/13 01:03:29;;;;;;;3.75;2.67;;;13.90;88.90;;;;;;5018950;28;20041;-69
2022/04/13 01:05:56;;;;;;;3.92;2.72;;;13.80;89.30;;;;;;5021350;28;20033;-69
2022/04/13 01:08:27;;;;;;;6.78;3.10;;;13.80;90.00;;;;;;5019172;28;20119;-69
2022/04/13 01:10:54;;;;;;;8.32;4.13;;;13.70;90.00;;;;;;5020491;28;20060;-70
2022/04/13 01:13:20;;;;;;;6.28;3.58;;;13.70;90.30;;;;;;5052818;22;20044;-69
2022/04/13 01:15:45;;;;;;;7.13;3.22;;;13.60;90.50;;;;;;5029672;28;20033;-71
2022/04/13 01:18:18;;;;;;;9.63;4.30;;;13.60;90.90;;;;;;5027252;28;20469;-71
2022/04/13 01:20:54;;;;;;;7.63;4.75;;;13.60;91.10;;;;;;5045419;28;20038;-70
2022/04/13 01:23:24;;;;;;;5.78;3.42;;;13.50;91.40;;;;;;5027107;28;20453;-71
2022/04/13 01:25:50;;;;;;;6.70;3.75;;;13.40;91.70;;;;;;5023862;28;20144;-71
2022/04/13 01:28:17;;;;;;;5.53;3.33;;;13.40;92.10;;;;;;5024066;28;21694;-70
2022/04/13 01:30:46;;;;;;;5.07;3.35;;;13.30;92.40;;;;;;5021558;28;20048;-70
2022/04/13 01:33:12;;;;;;;4.80;2.53;;;13.30;92.80;;;;;;5023491;28;20049;-70
2022/04/13 01:35:37;;;;;;;8.68;3.20;;;13.20;93.10;;;;;;5022300;28;20711;-70
2022/04/13 01:38:03;;;;;;;5.55;3.30;;;13.20;93.30;;;;;;5022851;28;20470;-70
2022/04/13 01:40:30;;;;;;;4.85;2.47;;;13.10;93.60;;;;;;5024728;28;20898;-70
2022/04/13 01:42:55;;;;;;;4.15;2.83;;;13.10;93.80;;;;;;5025640;28;20025;-70
2022/04/13 01:45:21;;;;;;;6.72;2.88;;;13.10;94.20;;;;;;5026156;28;20040;-70
2022/04/13 01:47:51;;;;;;;5.95;3.03;;;13.00;94.40;;;;;;5020949;28;20453;-72
2022/04/13 01:50:18;;;;;;;7.03;2.80;;;13.00;94.70;;;;;;5021809;28;20037;-72
2022/04/13 01:52:45;;;;;;;5.20;2.90;;;13.00;95.00;;;;;;5021069;28;20033;-72
2022/04/13 01:55:10;;;;;;;5.03;3.22;;;12.90;95.30;;;;;;5027388;28;20418;-72
2022/04/13 01:57:42;;;;;;;4.78;2.67;;;12.90;96.00;;;;;;5022730;28;20124;-72
2022/04/13 02:00:11;;;;;;;4.90;2.70;;;12.80;96.10;;;;;;5020927;28;20409;-72
2022/04/13 02:02:37;;;;;;;4.20;2.70;;;12.80;96.70;;;;;;5024255;28;20037;-71
2022/04/13 02:05:03;;;;;;;4.68;2.75;;;12.70;96.90;;;;;;5023051;28;20079;-72
2022/04/13 02:07:29;;;;;;;11.50;3.38;;;12.60;97.20;;;;;;5024055;28;20034;-72
2022/04/13 02:09:56;;;;;;;5.43;2.30;;;12.60;97.80;;;;;;5022884;28;20033;-72
2022/04/13 02:12:21;;;;;;;6.07;3.25;;;12.50;98.50;;;;;;5030120;28;20035;-71
2022/04/13 02:14:47;;;;;;;5.32;2.90;;;12.50;99.40;;;;;;5024771;28;20029;-72
2022/04/13 02:17:16;;;;;;;7.50;3.20;;;12.50;99.90;;;;;;5030056;28;20036;-71
2022/04/13 02:19:45;;;;;;;4.82;3.45;;;12.40;99.90;;;;;;5030704;28;20036;-72
2022/04/13 02:22:20;;;;;;;6.20;3.42;;;12.40;99.90;;;;;;5025573;28;20026;-72
2022/04/13 02:24:49;;;;;;;6.38;3.80;;;12.30;99.90;;;;;;5026777;28;20080;-71
2022/04/13 02:27:24;;;;;;;7.85;3.67;;;12.20;99.90;;;;;;5028672;28;20486;-71
2022/04/13 02:29:53;;;;;;;6.88;3.42;;;12.10;99.90;;;;;;5026310;28;20084;-72
2022/04/13 02:32:18;;;;;;;8.40;3.05;;;12.00;99.90;;;;;;5028261;28;20025;-69
2022/04/13 02:34:45;;;;;;;8.95;3.63;;;12.00;99.90;;;;;;5037248;28;20087;-69
2022/04/13 02:37:11;;;;;;;5.72;2.70;;;11.90;99.90;;;;;;5029907;28;20053;-70
2022/04/13 02:39:36;;;;;;;6.60;2.70;;;11.90;99.90;;;;;;5027271;28;20041;-69
2022/04/13 02:42:05;;;;;;;3.40;2.35;;;11.80;99.90;;;;;;5029457;28;20032;-69
2022/04/13 02:44:31;;;;;;;3.97;2.83;;;11.80;99.90;;;;;;5028625;28;20096;-69
2022/04/13 02:47:00;;;;;;;5.72;3.10;;;11.80;99.90;;;;;;5026454;28;20032;-69
2022/04/13 02:49:26;;;;;;;4.63;3.10;;;11.70;99.90;;;;;;5025906;28;20478;-70
2022/04/13 02:51:52;;;;;;;4.82;3.03;;;11.70;99.90;;;;;;5026794;28;20029;-70
2022/04/13 02:54:18;;;;;;;5.07;3.10;;;11.70;99.90;;;;;;5027740;28;20036;-70
2022/04/13 02:56:43;;;;;;;6.82;2.80;;;11.70;99.90;;;;;;5025565;28;20080;-70
2022/04/13 02:59:12;;;;;;;6.18;2.63;;;11.70;99.90;;;;;;5026209;28;20037;-69
2022/04/13 03:01:38;;;;;;;6.28;2.55;;;11.80;99.90;;;;;;5026973;28;20438;-69
2022/04/13 03:04:06;;;;;;;9.00;2.83;;;11.80;99.90;;;;;;5022377;28;20109;-69
2022/04/13 03:06:32;;;;;;;5.72;3.05;;;11.80;99.90;;;;;;5026638;28;20048;-69
2022/04/13 03:09:01;;;;;;;4.55;2.53;;;11.80;99.90;;;;;;5025857;28;20026;-69
2022/04/13 03:11:26;;;;;;;5.05;2.70;;;11.70;99.90;;;;;;5042590;28;20034;-69
2022/04/13 03:13:52;;;;;;;7.50;2.83;;;11.70;99.90;;;;;;5026010;28;20512;-69
2022/04/13 03:16:18;;;;;;;6.45;2.83;;;11.60;99.90;;;;;;5027812;28;20028;-70
2022/04/13 03:18:44;;;;;;;7.85;3.22;;;11.50;99.90;;;;;;5030979;28;20029;-70
2022/04/13 03:21:09;;;;;;;8.15;2.95;;;11.50;99.90;;;;;;5023410;28;20021;-70
2022/04/13 03:23:35;;;;;;;3.80;2.55;;;11.50;99.90;;;;;;5038218;28;20057;-70
2022/04/13 03:26:07;;;;;;;6.30;3.20;;;11.40;99.90;;;;;;5025122;28;20041;-70
2022/04/13 03:28:33;;;;;;;6.55;2.55;;;11.40;99.90;;;;;;5021654;28;20017;-70
2022/04/13 03:31:05;;;;;;;8.23;2.90;;;11.40;99.90;;;;;;5024903;28;20382;-70
2022/04/13 03:33:31;;;;;;;6.38;2.45;;;11.30;99.90;;;;;;5027042;28;20435;-70
2022/04/13 03:35:57;;;;;;;5.32;2.88;;;11.30;99.90;;;;;;5023697;28;20033;-70
2022/04/13 03:38:22;;;;;;;4.93;2.38;;;11.20;99.90;;;;;;5020025;28;20103;-70
2022/04/13 03:40:48;;;;;;;3.75;2.30;;;11.20;99.90;;;;;;5024790;28;20021;-69
2022/04/13 03:43:16;;;;;;;4.57;2.88;;;11.20;99.90;;;;;;5022204;28;20116;-69
2022/04/13 03:45:48;;;;;;;7.05;3.20;;;11.10;99.90;;;;;;5024567;28;20052;-69
2022/04/13 03:48:14;;;;;;;4.70;2.40;;;11.20;99.90;;;;;;5023327;28;20029;-69
2022/04/13 03:50:40;;;;;;;7.13;2.83;;;11.10;99.90;;;;;;5023326;28;20033;-69
2022/04/13 03:53:11;;;;;;;4.07;2.38;;;11.10;99.90;;;;;;5025092;28;20029;-69
2022/04/13 03:55:37;;;;;;;6.88;2.97;;;11.10;99.90;;;;;;5027901;28;20029;-69
2022/04/13 03:58:03;;;;;;;6.60;2.92;;;11.00;99.90;;;;;;5025039;28;20036;-69
2022/04/13 04:00:28;;;;;;;7.57;3.00;;;11.00;99.90;;;;;;5024268;28;20029;-69
2022/04/13 04:02:54;;;;;;;5.72;2.53;;;11.00;99.90;;;;;;5025047;28;20029;-69
2022/04/13 04:05:20;;;;;;;4.55;2.92;;;11.00;99.90;;;;;;5021477;28;20029;-69
2022/04/13 04:07:49;;;;;;;6.85;2.85;;;11.00;99.90;;;;;;5028061;28;20037;-68
2022/04/13 04:10:15;;;;;;;6.22;2.90;;;11.00;99.90;;;;;;5025249;28;20095;-68
2022/04/13 04:13:06;;;;;;;4.53;2.22;;;10.90;99.90;;;;;;5024937;28;20108;-69
2022/04/13 04:15:34;;;;;;;9.10;3.00;;;10.90;99.90;;;;;;5024538;28;20045;-70
2022/04/13 04:18:03;;;;;;;5.05;2.67;;;10.90;99.90;;;;;;5025461;28;20100;-69
2022/04/13 04:20:29;;;;;;;4.38;2.55;;;10.80;99.90;;;;;;5019283;28;20119;-70
2022/04/13 04:22:55;;;;;;;6.18;3.05;;;10.90;99.90;;;;;;5026927;28;20026;-69
2022/04/13 04:25:21;;;;;;;5.32;2.50;;;10.80;99.90;;;;;;5022632;28;20068;-69
2022/04/13 04:27:46;;;;;;;6.28;3.15;;;10.80;99.90;;;;;;5021757;28;20437;-68
2022/04/13 04:30:12;;;;;;;4.47;2.67;;;10.80;99.90;;;;;;5015220;28;20033;-70
2022/04/13 04:32:37;;;;;;;5.78;2.88;;;10.80;99.90;;;;;;5039396;28;20182;-70
2022/04/13 04:35:07;;;;;;;5.70;2.92;;;10.80;99.90;;;;;;5029299;28;20021;-71
2022/04/13 04:37:33;;;;;;;7.03;3.13;;;10.80;99.90;;;;;;5026571;28;20042;-72
2022/04/13 04:39:59;;;;;;;7.10;3.05;;;10.80;99.90;;;;;;5027352;28;20053;-70
2022/04/13 04:42:26;;;;;;;5.30;3.00;;;10.80;99.90;;;;;;5020633;28;20028;-70
2022/04/13 04:44:58;;;;;;;4.82;2.90;;;10.70;99.90;;;;;;5026737;28;20025;-70
2022/04/13 04:47:25;;;;;;;8.15;3.10;;;10.80;99.90;;;;;;5026445;28;20037;-70
2022/04/13 04:49:51;;;;;;;6.15;2.90;;;10.70;99.90;;;;;;5023233;28;20037;-69
2022/04/13 04:52:17;;;;;;;6.10;3.30;;;10.70;99.90;;;;;;5013356;28;20408;-69
2022/04/13 04:54:43;;;;;;;10.93;4.20;;;10.70;99.90;;;;;;5022660;28;20029;-71
2022/04/13 04:57:08;;;;;;;6.93;3.15;;;10.60;99.90;;;;;;5026210;28;20025;-69
2022/04/13 04:59:34;;;;;;;8.35;3.03;;;10.60;99.90;;;;;;5027172;28;20076;-68
2022/04/13 05:02:01;;;;;;;5.07;2.90;;;10.60;99.90;;;;;;5022060;28;20539;-70
2022/04/13 05:04:27;;;;;;;7.55;3.45;;;10.60;99.90;;;;;;5021059;28;20116;-68
2022/04/13 05:06:52;;;;;;;9.85;3.47;;;10.60;99.90;;;;;;5024838;28;20403;-70
2022/04/13 05:09:19;;;;;;;6.57;2.90;;;10.60;99.90;;;;;;5026077;28;20386;-70
2022/04/13 05:11:45;;;;;;;6.97;3.95;;;10.60;99.90;;;;;;5024473;28;20051;-69
2022/04/13 05:14:11;;;;;;;6.38;3.72;;;10.60;99.90;;;;;;5027528;28;20025;-70
2022/04/13 05:16:36;;;;;;;5.00;3.33;;;10.70;99.90;;;;;;5025972;28;20068;-71
2022/04/13 05:19:02;;;;;;;7.55;4.45;;;10.70;99.90;;;;;;5025806;28;20028;-71
2022/04/13 05:21:28;;;;;;;7.82;4.63;;;10.70;99.90;;;;;;5031399;28;20029;-71
2022/04/13 05:23:53;;;;;;;8.45;4.22;;;10.80;99.90;;;;;;5029627;28;20163;-70
2022/04/13 05:26:19;;;;;;;9.70;5.00;;;10.80;99.90;;;;;;5025257;28;20359;-70
2022/04/13 05:28:47;;;;;;;10.48;4.63;;;10.90;99.90;;;;;;5026083;28;20050;-68
2022/04/13 05:31:13;;;;;;;9.77;4.55;;;10.90;99.90;;;;;;5025521;28;20033;-71
2022/04/13 05:33:39;;;;;;;12.77;4.95;;;11.00;99.90;;;;;;5025057;28;20017;-73
2022/04/13 05:36:05;;;;;;;10.30;4.30;;;11.10;99.90;;;;;;5026748;28;20377;-73
2022/04/13 05:38:31;;;;;;;9.82;4.20;;;11.20;99.90;;;;;;5026690;28;20030;-71
2022/04/13 05:40:56;;;;;;;5.70;3.45;;;11.30;99.90;;;;;;5023961;28;20066;-71
2022/04/13 05:43:22;;;;;;;7.88;3.60;;;11.40;99.90;;;;;;5021373;28;20034;-73
2022/04/13 05:45:48;;;;;;;6.50;3.67;;;11.50;99.90;;;;;;5016361;28;20041;-74
2022/04/13 05:48:13;;;;;;;5.93;3.45;;;11.60;99.90;;;;;;5028001;28;20025;-73
2022/04/13 05:50:39;;;;;;;6.30;3.30;;;11.70;99.90;;;;;;5028401;28;20339;-73
2022/04/13 05:53:05;;;;;;;10.55;3.63;;;11.80;99.90;;;;;;5018455;28;20052;-71
2022/04/13 05:55:30;;;;;;;6.28;3.63;;;11.90;99.90;;;;;;5019060;28;20509;-74
2022/04/13 05:57:59;;;;;;;10.38;4.00;;;12.00;99.90;;;;;;5018893;28;20033;-73
2022/04/13 06:00:25;;;;;;;7.53;3.90;;;12.10;99.90;;;;;;5023043;28;20033;-73
2022/04/13 06:02:51;;;;;;;6.47;3.58;;;12.20;99.90;;;;;;5021151;28;20025;-75
2022/04/13 06:05:16;;;;;;;6.60;3.40;;;12.30;99.90;;;;;;5024852;28;20552;-74
2022/04/13 06:07:42;;;;;;;7.38;3.15;;;12.40;99.90;;;;;;5017292;28;20037;-72
2022/04/13 06:10:09;;;;;;;6.20;3.38;;;12.50;99.90;;;;;;5022455;28;20030;-72
2022/04/13 06:12:34;;;;;;;8.02;2.92;;;12.60;99.90;;;;;;5023208;28;20387;-69
2022/04/13 06:15:11;;;;;;;7.97;3.53;;;12.60;99.90;;;;;;5020859;28;20028;-70
2022/04/13 06:17:38;;;;;;;7.15;3.33;;;12.60;99.90;;;;;;5029205;28;20033;-70
2022/04/13 06:20:05;;;;;;;8.85;4.65;;;12.70;99.90;;;;;;5027386;28;20041;-71
2022/04/13 06:22:32;;;;;;;9.00;4.40;;;12.80;99.90;;;;;;5026862;28;20068;-71
2022/04/13 06:25:01;;;;;;;11.95;5.38;;;12.90;99.90;;;;;;5030697;28;20108;-70
2022/04/13 06:27:27;;;;;;;8.85;4.75;;;13.00;99.90;;;;;;5024320;28;20045;-70
2022/04/13 06:29:53;;;;;;;14.75;5.15;;;13.00;99.90;;;;;;5045251;28;20025;-71
2022/04/13 06:32:19;;;;;;;8.23;4.30;;;13.10;99.90;;;;;;5027249;28;20505;-70
2022/04/13 06:34:45;;;;;;;13.73;4.63;;;13.10;99.90;;;;;;5029089;28;20021;-70
2022/04/13 06:37:10;;;;;;;10.77;4.75;;;13.20;99.90;;;;;;5029213;28;20017;-70
2022/04/13 06:39:36;;;;;;;8.85;4.97;;;13.20;99.90;;;;;;5029333;28;20026;-70
2022/04/13 06:42:05;;;;;;;11.13;4.32;;;13.20;99.90;;;;;;5023989;28;20033;-70
2022/04/13 06:44:37;;;;;;;10.65;4.70;;;13.30;99.90;;;;;;5026218;28;20378;-69
2022/04/13 06:47:03;;;;;;;14.27;4.22;;;13.30;99.90;;;;;;5025760;28;20399;-69
2022/04/13 06:49:28;;;;;;;9.43;4.20;;;13.40;99.90;;;;;;5017609;28;20072;-69
2022/04/13 06:51:54;;;;;;;15.32;5.18;;;13.50;99.90;;;;;;5026413;28;20022;-69
2022/04/13 06:54:20;;;;;;;12.02;4.45;;;13.50;99.90;;;;;;5028872;28;20025;-69
2022/04/13 06:56:46;;;;;;;10.10;4.68;;;13.60;99.90;;;;;;5025778;28;20033;-69
2022/04/13 06:59:11;;;;;;;9.30;3.67;;;13.60;99.90;;;;;;5028993;28;20519;-69
2022/04/13 07:01:38;;;;;;;10.43;4.05;;;13.70;99.90;;;;;;5026644;28;20044;-69
2022/04/13 07:04:07;;;;;;;8.05;3.70;;;13.80;99.90;;;;;;5024755;28;20056;-68
2022/04/13 07:06:36;;;;;;;7.43;4.05;;;13.80;99.90;;;;;;5023781;28;21850;-71
2022/04/13 07:09:01;;;;;;;7.13;4.25;;;14.00;99.90;;;;;;5023105;28;20056;-68
2022/04/13 07:11:30;;;;;;;11.32;3.38;;;14.10;99.90;;;;;;5030712;28;20072;-69
2022/04/13 07:13:56;;;;;;;10.65;3.38;;;14.20;99.90;;;;;;5035878;23;20045;-71
2022/04/13 07:16:21;;;;;;;12.27;5.50;;;14.30;99.90;;;;;;5028194;28;20400;-70
2022/04/13 07:18:47;;;;;;;9.73;5.85;;;14.40;99.90;;;;;;5025394;28;20099;-70
2022/04/13 07:21:13;;;;;;;9.88;5.68;;;14.50;99.90;;;;;;5028864;28;20030;-71
2022/04/13 07:23:47;;;;;;;10.10;5.50;;;14.60;99.90;;;;;;5019355;28;20068;-71
2022/04/13 07:26:13;;;;;;;10.38;5.78;;;14.60;99.90;;;;;;5005979;28;20105;-72
2022/04/13 07:28:46;;;;;;;13.60;5.25;;;14.70;99.90;;;;;;5004369;28;20048;-73
2022/04/13 07:31:15;;;;;;;9.00;4.28;;;14.80;99.90;;;;;;5005365;28;20065;-71
2022/04/13 07:33:40;;;;;;;8.95;4.72;;;14.80;99.90;;;;;;5005542;28;20510;-70
2022/04/13 07:36:06;;;;;;;8.38;4.30;;;14.90;99.90;;;;;;5003845;28;20022;-71
2022/04/13 07:38:35;;;;;;;10.55;4.88;;;14.90;99.90;;;;;;5008169;28;20033;-71
2022/04/13 07:41:02;;;;;;;8.95;5.40;;;14.90;99.90;;;;;;5001670;28;20026;-69
2022/04/13 07:43:31;;;;;;;13.27;5.35;;;14.90;99.80;;;;;;5004540;28;20179;-71
2022/04/13 07:46:08;;;;;;;8.25;5.15;;;15.00;99.90;;;;;;5010253;28;20048;-71
2022/04/13 07:48:44;;;;;;;10.77;4.90;;;15.00;99.60;;;;;;5000035;28;20194;-71
2022/04/13 07:51:10;;;;;;;10.27;5.07;;;15.00;99.50;;;;;;5001665;28;20030;-71
2022/04/13 07:53:44;;;;;;;10.85;5.00;;;15.10;99.40;;;;;;5009079;28;20037;-71
2022/04/13 07:56:10;;;;;;;10.88;5.03;;;15.10;99.40;;;;;;5006222;28;20073;-72
2022/04/13 07:58:36;;;;;;;14.32;5.13;;;15.10;99.60;;;;;;5007114;28;20029;-71
2022/04/13 08:01:14;;;;;;;12.23;5.10;;;15.20;99.20;;;;;;5006917;28;20033;-71
2022/04/13 08:03:40;;;;;;;11.30;5.18;;;15.20;98.90;;;;;;5001044;28;20049;-70
2022/04/13 08:06:15;;;;;;;10.90;4.90;;;15.30;98.80;;;;;;5005769;28;20463;-70
2022/04/13 08:08:40;;;;;;;9.23;4.97;;;15.40;98.50;;;;;;5005300;28;20033;-70
2022/04/13 08:11:06;;;;;;;20.45;4.88;;;15.40;98.40;;;;;;5007759;28;20030;-71
2022/04/13 08:13:33;;;;;;;10.18;4.88;;;15.60;98.10;;;;;;5005646;28;20034;-72
2022/04/13 08:16:01;;;;;;;7.07;4.40;;;15.70;98.00;;;;;;5005524;28;20060;-71
2022/04/13 08:18:33;;;;;;;7.97;4.47;;;15.80;97.70;;;;;;5006886;28;20026;-71
2022/04/13 08:21:02;;;;;;;8.50;5.03;;;15.80;97.70;;;;;;5004314;28;20113;-70
2022/04/13 08:23:37;;;;;;;11.40;4.63;;;16.00;97.60;;;;;;5004754;28;20036;-71
2022/04/13 08:26:02;;;;;;;7.00;4.60;;;16.10;97.20;;;;;;5006046;28;20391;-71
2022/04/13 08:28:28;;;;;;;8.40;4.47;;;16.10;97.10;;;;;;5020874;28;20044;-70
2022/04/13 08:30:54;;;;;;;7.93;4.70;;;16.20;97.10;;;;;;4999074;28;20022;-71
2022/04/13 08:33:19;;;;;;;7.15;4.35;;;16.30;97.10;;;;;;5006547;28;20060;-71
2022/04/13 08:35:45;;;;;;;8.85;4.70;;;16.40;97.00;;;;;;5004636;28;20585;-71
2022/04/13 08:38:11;;;;;;;10.90;4.50;;;16.50;96.70;;;;;;5000095;28;20046;-71
2022/04/13 08:40:43;;;;;;;12.43;4.93;;;16.60;96.60;;;;;;5007300;28;20886;-71
2022/04/13 08:43:10;;;;;;;12.00;5.68;;;16.70;96.60;;;;;;5007915;28;20041;-71
2022/04/13 08:45:56;;;;;;;11.40;5.20;;;16.80;96.40;;;;;;5005354;28;20461;-71
2022/04/13 08:48:25;;;;;;;13.65;4.40;;;17.00;96.20;;;;;;5008095;28;20100;-72
2022/04/13 08:50:59;;;;;;;14.75;4.07;;;17.10;95.40;;;;;;5010788;28;20099;-71
2022/04/13 08:53:28;;;;;;;;;;;17.20;95.50;;;;;;5001456;28;20030;-71
2022/04/13 08:55:55;;;;;;;10.48;4.35;;;17.30;95.30;;;;;;5002333;28;19960;-71
2022/04/13 08:58:49;;;;;;;7.35;4.43;;;17.40;95.20;;;;;;5007263;28;20029;-71
2022/04/13 09:01:29;;;;;;;11.02;4.47;;;17.50;94.80;;;;;;5014328;28;20041;-71
2022/04/13 09:04:00;;;;;;;11.35;3.65;;;17.70;94.80;;;;;;5006028;28;20608;-71
2022/04/13 09:06:28;;;;;;;8.85;3.60;;;17.80;92.40;;;;;;5001903;28;20033;-70
2022/04/13 09:08:56;;;;;;;8.10;2.78;;;17.90;90.70;;;;;;5004451;28;20026;-71
2022/04/13 09:11:23;;;;;;;7.95;3.55;;;17.90;87.20;;;;;;5005148;28;20486;-71
2022/04/13 09:13:50;;;;;;;9.13;2.83;;;18.10;86.10;;;;;;5004230;28;20022;-71
2022/04/13 09:16:16;;;;;;;11.20;4.30;;;18.20;85.40;;;;;;5005838;28;20030;-71
2022/04/13 09:18:43;;;;;;;6.32;2.50;;;18.20;84.70;;;;;;4994742;28;20018;-72
2022/04/13 09:21:13;;;;;;;7.53;4.00;;;18.30;83.60;;;;;;5007025;28;20022;-72
2022/04/13 09:23:39;;;;;;;11.35;3.03;;;18.40;85.10;;;;;;5000999;28;20029;-71
2022/04/13 09:26:07;;;;;;;11.45;3.17;;;18.50;84.00;;;;;;5007403;28;20026;-71
2022/04/13 09:28:33;;;;;;;7.50;3.30;;;18.60;84.10;;;;;;5006041;28;20049;-71
2022/04/13 09:31:00;;;;;;;7.70;2.42;;;18.70;85.40;;;;;;5011631;28;20028;-71
2022/04/13 09:33:26;;;;;;;9.35;3.00;;;18.80;84.70;;;;;;5003719;28;20113;-71
2022/04/13 09:35:53;;;;;;;6.20;2.60;;;18.90;85.10;;;;;;5008439;28;20542;-71
2022/04/13 09:38:19;;;;;;;6.35;2.40;;;19.00;85.30;;;;;;5005488;28;20038;-72
2022/04/13 09:40:45;;;;;;;8.82;2.40;;;19.10;84.20;;;;;;5007966;28;20512;-72
2022/04/13 09:43:18;;;;;;;7.68;2.60;;;19.10;84.20;;;;;;5008803;28;20125;-72
2022/04/13 09:45:46;;;;;;;6.78;2.75;;;19.20;82.90;;;;;;5005080;28;20029;-72
2022/04/13 09:48:19;;;;;;;6.43;2.58;;;19.20;82.80;;;;;;4996492;28;20022;-71
2022/04/13 09:50:49;;;;;;;4.28;2.08;;;19.30;82.60;;;;;;5004674;28;20339;-72
2022/04/13 09:53:21;;;;;;;7.28;2.55;;;19.30;81.60;;;;;;5003639;28;20033;-72
2022/04/13 09:55:51;;;;;;;5.05;1.75;;;19.40;80.40;;;;;;4998631;28;20030;-72
2022/04/13 09:58:23;;;;;;;5.93;2.53;;;19.50;79.60;;;;;;5003402;28;20026;-72
2022/04/13 10:00:55;;;;;;;5.47;1.70;;;19.60;78.20;;;;;;5007033;28;20030;-69
2022/04/13 10:03:22;;;;;;;6.15;2.45;;;19.60;78.10;;;;;;5007234;28;20113;-70
2022/04/13 10:05:50;;;;;;;5.57;2.22;;;19.70;76.40;;;;;;5006774;28;20026;-70
2022/04/13 10:08:22;;;;;;;6.68;2.08;;;19.70;75.80;;;;;;4997946;28;20041;-71
2022/04/13 10:10:52;;;;;;;6.00;2.20;;;19.70;75.30;;;;;;5004168;28;20028;-72
2022/04/13 10:13:38;;;;;;;8.02;2.05;;;19.70;74.90;;;;;;5015007;28;20019;-72
2022/04/13 10:16:09;;;;;;;8.43;2.90;;;19.80;75.00;;;;;;5015947;28;20471;-71
2022/04/13 10:18:54;;;;;;;11.10;3.00;;;19.90;74.60;;;;;;5008337;28;20080;-72
2022/04/13 10:21:43;;;;;;;6.88;1.98;;;20.00;73.00;;;;;;5003570;28;20034;-71
2022/04/13 10:24:21;;;;;;;7.13;2.33;;;20.10;72.80;;;;;;5007242;28;20050;-71
2022/04/13 10:27:17;;;;;;;8.55;3.08;;;20.20;71.20;;;;;;5006088;28;20112;-71
2022/04/13 10:29:48;;;;;;;4.63;2.38;;;20.30;70.60;;;;;;5005142;28;20497;-71
2022/04/13 10:32:25;;;;;;;11.98;2.90;;;20.40;70.00;;;;;;5012848;28;20833;-71
2022/04/13 10:34:52;;;;;;;5.72;2.17;;;20.40;69.50;;;;;;5003453;28;20037;-70
2022/04/13 10:37:20;;;;;;;5.00;1.98;;;20.40;69.00;;;;;;5007481;28;20088;-72
2022/04/13 10:39:47;;;;;;;5.30;2.50;;;20.40;68.50;;;;;;5010037;28;20026;-71
2022/04/13 10:42:15;;;;;;;5.80;2.17;;;20.40;68.30;;;;;;5001553;28;20022;-72
2022/04/13 10:44:54;;;;;;;6.95;1.80;;;20.50;67.70;;;;;;5005926;28;20056;-72
2022/04/13 10:47:40;;;;;;;7.15;2.17;;;20.50;67.00;;;;;;5020884;28;20446;-71
2022/04/13 10:50:07;;;;;;;6.82;1.75;;;20.50;67.30;;;;;;5011795;28;20477;-72
2022/04/13 10:52:39;;;;;;;6.93;1.60;;;20.60;66.00;;;;;;5003008;28;20030;-71
2022/04/13 10:55:08;;;;;;;7.32;1.55;;;20.60;66.10;;;;;;5011014;28;20022;-71
2022/04/13 10:57:46;;;;;;;4.57;2.00;;;20.60;65.40;;;;;;5007211;28;20474;-71
2022/04/13 11:00:16;;;;;;;8.82;2.08;;;20.70;65.10;;;;;;5024800;28;20030;-71
2022/04/13 11:02:57;;;;;;;4.97;2.17;;;20.70;65.30;;;;;;5006844;28;20026;-71
2022/04/13 11:05:25;;;;;;;10.60;2.38;;;20.70;65.20;;;;;;5007760;28;20097;-72
2022/04/13 11:08:15;;;;;;;6.45;2.33;;;20.70;66.00;;;;;;5007316;28;20605;-71
2022/04/13 11:10:50;;;;;;;17.17;3.53;;;20.80;66.80;;;;;;5010998;28;20028;-71
2022/04/13 11:13:17;;;;;;;5.30;2.20;;;20.80;66.50;;;;;;5002015;28;20026;-72
2022/04/13 11:15:44;;;;;;;7.40;3.58;;;20.90;65.00;;;;;;5008229;28;20108;-71
2022/04/13 11:18:16;;;;;;;7.97;2.38;;;21.00;65.10;;;;;;5002583;28;20046;-72
2022/04/13 11:21:11;;;;;;;9.93;3.22;;;21.10;65.20;;;;;;5007243;28;20405;-72
2022/04/13 11:23:54;;;;;;;3.78;1.88;;;21.10;63.80;;;;;;4994705;28;20042;-71
2022/04/13 11:26:34;;;;;;;7.95;2.15;;;21.20;63.40;;;;;;5010394;28;20081;-72
2022/04/13 11:29:09;;;;;;;4.65;2.97;;;21.20;63.50;;;;;;5006348;28;20065;-71
2022/04/13 11:32:00;;;;;;;8.25;2.50;;;21.20;63.80;;;;;;5002393;28;20524;-71
2022/04/13 11:34:39;;;;;;;8.55;2.15;;;21.30;63.60;;;;;;5011081;28;20422;-71
2022/04/13 11:37:20;;;;;;;5.70;2.33;;;21.40;64.40;;;;;;5019639;28;20026;-71
2022/04/13 11:40:10;;;;;;;7.38;2.45;;;21.40;62.70;;;;;;5004071;28;20505;-71
2022/04/13 11:42:43;;;;;;;4.63;1.77;;;21.40;63.40;;;;;;5005924;28;20034;-72
2022/04/13 11:45:15;;;;;;;5.70;1.80;;;21.50;62.20;;;;;;5007862;28;20025;-72
2022/04/13 11:47:48;;;;;;;4.90;2.20;;;21.60;62.70;;;;;;5003404;28;20036;-71
2022/04/13 11:50:14;;;;;;;9.02;2.88;;;21.60;64.30;;;;;;5003033;28;20457;-70
2022/04/13 11:53:05;;;;;;;8.50;2.00;;;21.60;65.10;;;;;;5004578;28;20045;-70
2022/04/13 11:55:37;;;;;;;9.70;2.80;;;21.70;64.40;;;;;;4999803;28;20030;-71
2022/04/13 11:58:08;;;;;;;7.57;2.50;;;21.70;62.90;;;;;;5005413;28;20142;-71
2022/04/13 12:00:52;;;;;;;9.57;2.40;;;21.70;63.20;;;;;;5016743;28;20025;-70
2022/04/13 12:03:20;;;;;;;6.53;2.42;;;21.80;63.00;;;;;;5005144;28;20422;-70
2022/04/13 12:05:52;;;;;;;5.88;2.83;;;21.80;62.80;;;;;;5004538;28;20053;-71
2022/04/13 12:08:57;;;;;;;7.53;2.20;;;21.80;63.70;;;;;;5000347;28;20021;-71
2022/04/13 12:11:39;;;;;;;5.22;1.88;;;21.90;62.50;;;;;;5006692;28;20372;-72
2022/04/13 12:14:05;;;;;;;9.45;2.25;;;22.00;61.20;;;;;;5003719;28;20042;-71
2022/04/13 12:16:38;;;;;;;4.32;2.30;;;22.00;61.60;;;;;;5002975;28;20438;-72
2022/04/13 12:19:11;;;;;;;10.18;2.88;;;22.10;61.20;;;;;;5006993;28;20545;-71
2022/04/13 12:21:39;;;;;;;4.20;2.10;;;22.10;60.80;;;;;;5004965;28;20092;-72
2022/04/13 12:24:07;;;;;;;5.63;2.25;;;22.20;61.40;;;;;;5004697;28;20030;-72
2022/04/13 12:26:36;;;;;;;6.82;2.55;;;22.30;60.10;;;;;;5000042;28;20111;-71
2022/04/13 12:29:10;;;;;;;5.20;2.30;;;22.20;59.40;;;;;;5006330;28;20036;-71
2022/04/13 12:31:47;;;;;;;6.97;2.70;;;22.30;60.70;;;;;;5004238;28;20133;-70
2022/04/13 12:34:23;;;;;;;6.00;1.98;;;22.30;61.00;;;;;;5005206;28;20848;-70
2022/04/13 12:36:55;;;;;;;12.88;2.70;;;22.30;60.80;;;;;;5006639;28;20022;-71
2022/04/13 12:39:30;;;;;;;10.20;3.10;;;22.30;60.50;;;;;;5006302;28;20125;-72
2022/04/13 12:41:55;;;;;;;8.55;3.20;;;22.40;59.50;;;;;;5005888;28;20034;-71
2022/04/13 12:44:21;;;;;;;4.90;2.42;;;22.40;59.10;;;;;;5005644;28;20048;-71
2022/04/13 12:46:47;;;;;;;4.32;2.28;;;22.50;57.90;;;;;;5003612;28;20117;-72
2022/04/13 12:49:20;;;;;;;3.40;1.90;;;22.50;58.50;;;;;;5004045;28;20187;-71
2022/04/13 12:51:47;;;;;;;4.05;1.52;;;22.60;59.10;;;;;;5005048;28;20038;-71
2022/04/13 12:54:18;;;;;;;3.90;1.90;;;22.60;59.00;;;;;;5002131;28;20026;-70
2022/04/13 12:56:48;;;;;;;6.20;2.00;;;22.70;57.50;;;;;;5005210;28;20080;-71